Time;durP1;ratioP1;P1;durP2;ratioP2;P2;SDS_P1;SDS_P2;PMS_P1;PMS_P2;Temp;Humidity;BMP_temperature;BMP_pressure;BME280_temperature;BME280_humidity;BME280_pressure;Samples;Min_cycle;Max_cycle;Signal;HPM_P1;HPM_P2
2022/05/01 00:01:06;;;;;;;29.43;25.33;;;11.70;1.00;;;;;;5100047;28;20453;-56
2022/05/01 00:03:31;;;;;;;30.23;25.47;;;12.20;1.00;;;;;;5089512;28;20192;-58
2022/05/01 00:05:58;;;;;;;26.53;23.67;;;11.60;1.00;;;;;;5108070;28;21000;-55
2022/05/01 00:08:24;;;;;;;34.00;28.60;;;11.50;1.00;;;;;;5110608;28;20186;-54
2022/05/01 00:10:50;;;;;;;41.33;33.17;;;11.40;1.00;;;;;;5094944;28;20882;-54
2022/05/01 00:13:15;;;;;;;39.80;33.37;;;11.50;1.00;;;;;;5091399;28;20175;-54
2022/05/01 00:15:42;;;;;;;36.70;30.20;;;11.50;1.00;;;;;;5104354;28;20221;-54
2022/05/01 00:18:11;;;;;;;33.60;27.37;;;11.40;1.00;;;;;;5074029;28;20267;-55
2022/05/01 00:20:36;;;;;;;28.10;25.20;;;11.40;1.00;;;;;;5091033;28;20450;-56
2022/05/01 00:23:02;;;;;;;29.93;25.77;;;11.40;1.00;;;;;;5104762;28;20463;-55
2022/05/01 00:25:28;;;;;;;33.33;24.40;;;;;;;;;;5108319;28;20202;-57
2022/05/01 00:27:55;;;;;;;33.63;25.17;;;11.40;1.00;;;;;;5102141;28;20466;-55
2022/05/01 00:30:21;;;;;;;30.07;26.07;;;11.40;1.00;;;;;;5103787;28;20889;-56
2022/05/01 00:38:15;;;;;;;31.50;25.30;;;11.10;1.00;;;;;;5110868;28;20548;-55
2022/05/01 00:40:40;;;;;;;28.57;25.43;;;11.20;1.00;;;;;;5081706;28;20450;-56
2022/05/01 00:43:06;;;;;;;28.20;25.10;;;11.20;1.00;;;;;;5100892;28;20498;-57
2022/05/01 00:45:33;;;;;;;32.57;26.93;;;11.00;1.00;;;;;;5104975;28;20279;-55
2022/05/01 00:47:59;;;;;;;29.20;26.37;;;11.10;1.00;;;;;;5102444;28;20190;-57
2022/05/01 00:50:24;;;;;;;29.10;26.00;;;11.10;1.00;;;;;;5105401;28;20462;-55
2022/05/01 00:52:52;;;;;;;28.90;23.57;;;11.00;1.00;;;;;;5106226;28;20533;-54
2022/05/01 00:55:18;;;;;;;29.83;25.27;;;11.00;1.00;;;;;;5092327;28;20190;-55
2022/05/01 00:57:47;;;;;;;28.30;23.97;;;11.00;1.00;;;;;;5097109;28;20532;-60
2022/05/01 01:00:13;;;;;;;26.30;22.07;;;11.10;1.00;;;;;;5108952;28;20473;-60
2022/05/01 01:02:39;;;;;;;27.80;23.50;;;11.00;1.00;;;;;;5106768;28;20897;-59
2022/05/01 01:05:06;;;;;;;25.60;21.47;;;10.90;1.00;;;;;;5099706;28;20447;-62
2022/05/01 01:07:33;;;;;;;24.03;21.50;;;10.90;1.00;;;;;;5094648;28;20450;-61
2022/05/01 01:09:59;;;;;;;23.50;20.97;;;10.90;1.00;;;;;;5103408;28;20445;-59
2022/05/01 01:15:11;;;;;;;22.93;20.73;;;10.80;1.00;;;;;;5097897;28;20248;-60
2022/05/01 01:17:42;;;;;;;24.10;20.90;;;10.70;1.00;;;;;;5097579;28;20455;-59
2022/05/01 01:20:11;;;;;;;22.80;20.33;;;10.70;1.00;;;;;;5103549;28;20819;-60
2022/05/01 01:22:40;;;;;;;25.00;22.30;;;10.70;1.00;;;;;;5077478;28;20795;-56
2022/05/01 01:25:11;;;;;;;23.07;20.57;;;10.60;1.00;;;;;;5103272;28;20451;-56
2022/05/01 01:27:42;;;;;;;27.93;22.07;;;10.60;1.00;;;;;;5093760;28;20452;-55
2022/05/01 01:32:54;;;;;;;22.70;20.30;;;10.50;1.00;;;;;;5103911;28;20446;-60
2022/05/01 01:35:22;;;;;;;24.83;21.40;;;10.50;1.00;;;;;;5096777;28;20526;-59
2022/05/01 01:37:49;;;;;;;24.47;20.53;;;10.50;1.00;;;;;;5090899;28;20452;-60
2022/05/01 01:40:22;;;;;;;23.40;19.67;;;10.40;1.00;;;;;;5094234;28;20441;-60
2022/05/01 01:42:53;;;;;;;22.40;20.07;;;10.40;1.00;;;;;;5111565;28;20448;-59
2022/05/01 01:45:20;;;;;;;23.67;21.17;;;10.40;1.00;;;;;;5111532;28;20609;-59
2022/05/01 01:47:49;;;;;;;22.73;20.20;;;10.40;1.00;;;;;;5097343;28;20532;-58
2022/05/01 01:50:17;;;;;;;26.67;20.50;;;10.40;1.00;;;;;;5100379;28;20442;-59
2022/05/01 01:52:47;;;;;;;23.57;20.13;;;10.40;1.00;;;;;;5114748;28;20440;-60
2022/05/01 01:55:15;;;;;;;22.67;20.23;;;10.40;1.00;;;;;;5111438;28;20443;-59
2022/05/01 01:57:41;;;;;;;22.70;20.30;;;10.40;1.00;;;;;;5112802;28;20478;-58
2022/05/01 02:00:07;;;;;;;20.73;18.47;;;10.30;1.00;;;;;;5115783;28;21226;-60
2022/05/01 02:02:33;;;;;;;21.77;19.47;;;10.20;1.00;;;;;;5110875;28;20447;-59
2022/05/01 02:04:58;;;;;;;23.97;20.53;;;10.20;1.00;;;;;;5101438;28;20451;-60
2022/05/01 02:07:24;;;;;;;25.27;21.33;;;10.20;1.00;;;;;;5101392;28;20186;-59
2022/05/01 02:09:49;;;;;;;23.40;20.63;;;10.20;1.00;;;;;;5107754;28;20543;-59
2022/05/01 02:12:15;;;;;;;21.80;19.50;;;10.10;1.00;;;;;;5115190;28;20717;-59
2022/05/01 02:14:42;;;;;;;24.10;20.60;;;10.10;1.00;;;;;;5110229;28;20179;-59
2022/05/01 02:17:07;;;;;;;24.47;20.40;;;10.10;1.00;;;;;;5114131;28;20683;-59
2022/05/01 02:19:33;;;;;;;22.20;19.83;;;10.00;1.00;;;;;;5106218;28;20652;-57
2022/05/01 02:21:58;;;;;;;21.03;18.80;;;10.00;1.00;;;;;;5096435;28;20190;-59
2022/05/01 02:24:25;;;;;;;24.10;21.50;;;9.90;1.00;;;;;;5107686;28;20184;-61
2022/05/01 02:26:51;;;;;;;21.17;18.87;;;9.80;1.00;;;;;;5114267;28;20184;-54
2022/05/01 02:29:16;;;;;;;21.43;18.77;;;10.00;1.00;;;;;;5115082;28;20444;-54
2022/05/01 02:31:44;;;;;;;26.30;20.67;;;9.90;1.00;;;;;;5108646;28;20479;-56
2022/05/01 02:34:11;;;;;;;24.40;20.17;;;9.90;1.00;;;;;;5102344;28;20900;-55
2022/05/01 02:36:38;;;;;;;24.20;21.20;;;9.80;1.00;;;;;;5107194;28;20858;-56
2022/05/01 02:39:04;;;;;;;23.50;21.00;;;9.80;1.00;;;;;;5112388;28;20475;-57
2022/05/01 02:41:31;;;;;;;26.20;20.43;;;9.80;1.00;;;;;;5115084;28;20796;-55
2022/05/01 02:43:57;;;;;;;24.07;21.27;;;9.70;1.00;;;;;;5107766;28;20475;-53
2022/05/01 02:46:26;;;;;;;25.27;21.13;;;9.60;1.00;;;;;;5109936;28;20435;-54
2022/05/01 02:48:51;;;;;;;23.50;21.00;;;9.60;1.00;;;;;;5099276;28;20925;-58
2022/05/01 02:51:17;;;;;;;22.93;20.27;;;9.60;1.00;;;;;;5085254;28;20546;-56
2022/05/01 02:53:43;;;;;;;27.20;19.87;;;9.70;1.00;;;;;;5095311;28;20186;-56
2022/05/01 02:56:09;;;;;;;25.37;20.10;;;9.60;1.00;;;;;;5104931;28;20181;-56
2022/05/01 02:58:35;;;;;;;26.20;20.53;;;9.60;1.00;;;;;;5104956;28;20475;-55
2022/05/01 03:01:00;;;;;;;22.70;20.40;;;9.60;1.00;;;;;;5096543;28;20441;-53
2022/05/01 03:03:27;;;;;;;27.00;21.40;;;9.60;1.00;;;;;;5100345;28;20243;-56
2022/05/01 03:05:53;;;;;;;26.07;20.30;;;;;;;;;;5093998;28;20183;-55
2022/05/01 03:08:20;;;;;;;21.47;19.27;;;9.60;1.00;;;;;;5101867;28;20463;-55
2022/05/01 03:10:46;;;;;;;23.63;21.20;;;9.70;1.00;;;;;;5100052;28;20457;-55
2022/05/01 03:13:12;;;;;;;22.70;20.17;;;9.60;1.00;;;;;;5104788;28;20470;-54
2022/05/01 03:15:37;;;;;;;24.97;20.87;;;9.40;1.00;;;;;;5105093;28;20456;-56
2022/05/01 03:23:32;;;;;;;22.70;19.23;;;9.50;1.00;;;;;;5101845;28;20500;-58
2022/05/01 03:25:58;;;;;;;23.50;20.00;;;9.30;1.00;;;;;;5107244;28;20440;-58
2022/05/01 03:28:24;;;;;;;22.97;20.53;;;9.30;1.00;;;;;;5108842;28;20218;-59
2022/05/01 03:30:52;;;;;;;23.07;20.67;;;9.80;1.00;;;;;;5100279;28;20214;-60
2022/05/01 03:33:21;;;;;;;23.40;20.90;;;9.30;1.00;;;;;;5081528;28;20453;-59
2022/05/01 03:35:47;;;;;;;23.70;20.20;;;9.20;1.00;;;;;;5110989;28;20546;-59
2022/05/01 03:38:13;;;;;;;23.30;20.83;;;9.30;1.00;;;;;;5100962;28;20963;-60
2022/05/01 03:40:38;;;;;;;23.43;20.57;;;9.20;1.00;;;;;;5107993;28;20532;-58
2022/05/01 03:43:04;;;;;;;25.00;19.70;;;9.20;1.00;;;;;;5101626;28;20624;-60
2022/05/01 03:45:30;;;;;;;25.37;20.90;;;9.10;1.00;;;;;;5090623;28;20308;-59
2022/05/01 03:47:56;;;;;;;24.23;20.07;;;9.20;1.00;;;;;;5099924;28;20869;-59
2022/05/01 03:50:21;;;;;;;23.40;19.43;;;9.20;1.00;;;;;;5104854;28;20239;-59
2022/05/01 03:52:47;;;;;;;22.53;19.30;;;9.20;1.00;;;;;;5099392;28;20517;-57
2022/05/01 03:55:13;;;;;;;25.93;20.60;;;9.20;1.00;;;;;;5105387;28;20185;-56
2022/05/01 03:57:39;;;;;;;20.80;18.70;;;9.20;1.00;;;;;;5101065;28;20281;-55
2022/05/01 04:00:06;;;;;;;22.57;20.30;;;9.20;1.00;;;;;;5109894;28;20447;-55
2022/05/01 04:02:40;;;;;;;21.27;19.00;;;9.20;1.00;;;;;;5104882;28;20486;-56
2022/05/01 04:05:07;;;;;;;23.53;20.03;;;9.10;1.00;;;;;;5107336;28;20448;-56
2022/05/01 04:07:32;;;;;;;24.43;19.77;;;9.10;1.00;;;;;;5100549;28;20471;-56
2022/05/01 04:09:58;;;;;;;24.30;19.47;;;9.10;1.00;;;;;;5097004;28;20466;-55
2022/05/01 04:12:23;;;;;;;22.70;18.33;;;9.20;1.00;;;;;;5095956;28;20276;-56
2022/05/01 04:14:49;;;;;;;20.97;18.60;;;9.10;1.00;;;;;;5096572;28;20194;-55
2022/05/01 04:17:14;;;;;;;24.07;20.47;;;9.20;1.00;;;;;;5102899;28;20555;-55
2022/05/01 04:19:40;;;;;;;22.23;19.13;;;9.20;1.00;;;;;;5100314;28;20206;-56
2022/05/01 04:22:05;;;;;;;20.97;18.77;;;9.20;1.00;;;;;;5110089;28;20221;-56
2022/05/01 04:24:31;;;;;;;21.37;19.10;;;9.30;1.00;;;;;;5100551;28;20236;-56
2022/05/01 04:26:56;;;;;;;20.67;18.47;;;9.30;1.00;;;;;;5102663;28;20193;-56
2022/05/01 04:29:37;;;;;;;21.13;18.87;;;9.30;1.00;;;;;;5106404;28;20194;-56
2022/05/01 04:32:05;;;;;;;21.13;18.80;;;9.40;1.00;;;;;;5102129;28;20190;-53
2022/05/01 04:34:30;;;;;;;19.67;17.13;;;9.40;1.00;;;;;;5103961;28;20455;-56
2022/05/01 04:36:58;;;;;;;20.33;18.17;;;9.40;1.00;;;;;;5105500;28;20455;-57
2022/05/01 04:39:24;;;;;;;19.90;17.80;;;9.50;1.00;;;;;;5109189;28;20220;-56
2022/05/01 04:41:49;;;;;;;23.30;18.60;;;9.50;1.00;;;;;;5101482;28;20808;-55
2022/05/01 04:44:15;;;;;;;22.23;19.00;;;9.60;1.00;;;;;;5102429;28;20241;-56
2022/05/01 04:46:40;;;;;;;20.37;17.53;;;9.60;1.00;;;;;;5101870;28;20643;-55
2022/05/01 04:49:06;;;;;;;22.77;18.20;;;9.60;1.00;;;;;;5100157;28;20213;-55
2022/05/01 04:51:32;;;;;;;20.23;17.97;;;9.60;1.00;;;;;;5103461;28;20198;-55
2022/05/01 04:53:57;;;;;;;21.43;18.37;;;9.70;1.00;;;;;;5099882;28;20199;-55
2022/05/01 04:59:15;;;;;;;18.80;16.90;;;9.80;1.00;;;;;;5060889;28;20225;-55
2022/05/01 05:01:41;;;;;;;21.00;18.70;;;10.00;1.00;;;;;;5106066;28;20456;-54
2022/05/01 05:04:07;;;;;;;22.67;17.37;;;9.90;1.00;;;;;;5097716;28;20555;-55
2022/05/01 05:06:32;;;;;;;17.97;16.17;;;9.90;1.00;;;;;;5102962;28;20440;-56
2022/05/01 05:11:42;;;;;;;22.80;17.03;;;10.10;1.00;;;;;;5100727;28;20200;-55
2022/05/01 05:14:08;;;;;;;19.57;17.60;;;10.30;1.00;;;;;;5106231;28;20443;-55
2022/05/01 05:16:33;;;;;;;19.00;17.00;;;10.40;1.00;;;;;;5102498;28;20189;-55
2022/05/01 05:18:59;;;;;;;18.03;16.10;;;10.50;1.00;;;;;;5105067;28;20300;-55
2022/05/01 05:21:24;;;;;;;22.80;18.13;;;10.60;1.00;;;;;;5095119;28;20653;-59
2022/05/01 05:23:50;;;;;;;19.50;17.50;;;10.70;1.00;;;;;;5099024;28;20277;-59
2022/05/01 05:26:15;;;;;;;19.63;17.50;;;10.70;1.00;;;;;;5106428;28;20286;-58
2022/05/01 05:28:41;;;;;;;20.50;17.40;;;10.80;1.00;;;;;;5104969;28;20197;-60
2022/05/01 05:31:07;;;;;;;18.37;16.60;;;10.80;1.00;;;;;;5103255;28;20186;-59
2022/05/01 05:33:32;;;;;;;21.13;17.80;;;11.00;1.00;;;;;;5100503;28;20194;-59
2022/05/01 05:35:58;;;;;;;22.07;17.20;;;11.20;1.00;;;;;;5107320;28;20186;-59
2022/05/01 05:38:23;;;;;;;20.20;16.87;;;11.20;1.00;;;;;;5103185;28;20202;-59
2022/05/01 05:40:49;;;;;;;20.60;18.20;;;11.30;1.00;;;;;;5105296;28;20189;-59
2022/05/01 05:43:14;;;;;;;21.20;17.97;;;11.50;1.00;;;;;;5100067;28;20223;-59
2022/05/01 05:45:40;;;;;;;21.27;19.20;;;11.40;1.00;;;;;;5107787;28;20198;-60
2022/05/01 05:48:06;;;;;;;20.67;18.57;;;11.50;1.00;;;;;;5106016;28;20379;-59
2022/05/01 05:50:31;;;;;;;21.20;19.00;;;11.50;1.00;;;;;;5096507;28;20319;-60
2022/05/01 05:52:57;;;;;;;20.90;18.67;;;11.70;1.00;;;;;;5094454;28;20468;-60
2022/05/01 05:55:23;;;;;;;21.43;19.40;;;11.70;1.00;;;;;;5101830;28;20198;-60
2022/05/01 05:57:48;;;;;;;22.30;18.37;;;11.80;1.00;;;;;;5093316;28;20665;-60
2022/05/01 06:00:14;;;;;;;21.13;18.90;;;11.80;1.00;;;;;;5105902;28;20189;-60
2022/05/01 06:02:40;;;;;;;22.27;19.77;;;11.90;1.00;;;;;;5097865;28;20212;-60
2022/05/01 06:05:06;;;;;;;22.13;19.77;;;12.10;1.00;;;;;;5102427;28;20451;-58
2022/05/01 06:07:32;;;;;;;22.20;19.73;;;12.10;1.00;;;;;;5102230;28;20444;-59
2022/05/01 06:09:58;;;;;;;22.63;20.27;;;12.20;1.00;;;;;;5097398;28;20463;-59
2022/05/01 06:12:23;;;;;;;25.40;19.70;;;12.20;1.00;;;;;;5093095;28;20324;-60
2022/05/01 06:14:49;;;;;;;22.20;19.93;;;12.30;1.00;;;;;;5105609;28;20550;-60
2022/05/01 06:17:15;;;;;;;23.27;20.20;;;12.30;1.00;;;;;;5101194;28;20190;-59
2022/05/01 06:19:40;;;;;;;20.83;18.73;;;12.30;1.00;;;;;;5086980;28;20213;-60
2022/05/01 06:22:06;;;;;;;22.63;20.00;;;12.50;1.00;;;;;;5099240;28;20202;-59
2022/05/01 06:24:31;;;;;;;25.17;21.87;;;12.60;1.00;;;;;;5096992;28;20184;-60
2022/05/01 06:26:57;;;;;;;23.67;21.27;;;12.70;1.00;;;;;;5105394;28;20269;-60
2022/05/01 06:29:23;;;;;;;24.50;20.80;;;13.20;1.00;;;;;;5102664;28;20271;-60
2022/05/01 06:31:49;;;;;;;24.53;21.80;;;13.20;1.00;;;;;;5101314;28;20950;-59
2022/05/01 06:34:15;;;;;;;22.43;20.30;;;13.40;1.00;;;;;;5105388;28;20209;-60
2022/05/01 06:36:41;;;;;;;27.03;20.30;;;13.60;1.00;;;;;;5106904;28;20490;-61
2022/05/01 06:39:09;;;;;;;29.27;21.27;;;13.80;1.00;;;;;;5104963;28;20471;-60
2022/05/01 06:41:35;;;;;;;24.60;22.03;;;13.90;1.00;;;;;;5100875;28;20446;-61
2022/05/01 06:44:00;;;;;;;28.20;22.40;;;13.90;1.00;;;;;;5112500;28;20617;-60
2022/05/01 06:46:26;;;;;;;24.67;22.20;;;14.10;1.00;;;;;;5094215;28;21014;-60
2022/05/01 06:48:51;;;;;;;25.40;22.87;;;14.10;1.00;;;;;;5100503;28;20316;-60
2022/05/01 06:51:17;;;;;;;27.17;24.37;;;14.30;1.00;;;;;;5106143;28;20223;-60
2022/05/01 06:53:42;;;;;;;27.03;24.33;;;14.50;1.00;;;;;;5100597;28;20191;-59
2022/05/01 06:56:08;;;;;;;27.60;23.90;;;14.50;1.00;;;;;;5105704;28;20190;-58
2022/05/01 06:58:35;;;;;;;24.53;22.07;;;14.40;1.00;;;;;;5098803;28;20263;-60
2022/05/01 07:01:00;;;;;;;27.87;25.00;;;14.40;1.00;;;;;;5100713;28;20186;-60
2022/05/01 07:03:26;;;;;;;28.53;25.53;;;14.60;1.00;;;;;;5104824;28;20462;-60
2022/05/01 07:05:52;;;;;;;26.57;23.93;;;14.80;1.00;;;;;;5100701;28;20448;-60
2022/05/01 07:08:17;;;;;;;28.67;23.77;;;14.90;1.00;;;;;;5102198;28;20532;-64
2022/05/01 07:10:43;;;;;;;29.13;25.93;;;15.00;1.00;;;;;;5101690;28;20292;-63
2022/05/01 07:13:10;;;;;;;28.23;25.40;;;15.20;1.00;;;;;;5097781;28;20619;-63
2022/05/01 07:15:37;;;;;;;28.13;25.43;;;15.40;1.00;;;;;;5101534;28;20195;-64
2022/05/01 07:18:02;;;;;;;29.07;26.00;;;15.40;1.00;;;;;;5097023;28;20546;-63
2022/05/01 07:20:29;;;;;;;29.93;26.93;;;15.40;1.00;;;;;;5106273;28;20542;-63
2022/05/01 07:22:54;;;;;;;27.47;24.70;;;15.40;1.00;;;;;;5087080;28;20528;-64
2022/05/01 07:25:20;;;;;;;28.90;25.83;;;15.40;1.00;;;;;;5102039;28;20925;-64
2022/05/01 07:27:45;;;;;;;30.77;26.37;;;15.70;1.00;;;;;;5098049;28;20303;-63
2022/05/01 07:30:11;;;;;;;28.93;25.23;;;15.80;1.00;;;;;;5110297;28;20239;-64
2022/05/01 07:32:37;;;;;;;28.67;25.67;;;16.00;1.00;;;;;;5094432;28;20186;-64
2022/05/01 07:35:03;;;;;;;26.83;24.20;;;16.20;1.00;;;;;;5095794;28;20429;-64
2022/05/01 07:37:29;;;;;;;28.17;25.17;;;16.20;1.00;;;;;;5097638;28;20209;-63
2022/05/01 07:39:55;;;;;;;28.73;25.70;;;16.20;1.00;;;;;;5099874;28;20293;-64
2022/05/01 07:42:22;;;;;;;28.37;25.57;;;16.40;1.00;;;;;;5105066;28;20570;-63
2022/05/01 07:44:48;;;;;;;28.73;25.87;;;16.50;1.00;;;;;;5100200;28;20234;-63
2022/05/01 07:47:13;;;;;;;28.53;25.57;;;16.20;1.00;;;;;;5094988;28;20968;-65
2022/05/01 07:49:39;;;;;;;26.53;23.83;;;16.70;1.00;;;;;;5102132;28;20186;-64
2022/05/01 07:52:05;;;;;;;25.57;23.10;;;16.90;1.00;;;;;;5086061;28;20231;-63
2022/05/01 07:54:31;;;;;;;27.57;24.83;;;17.00;1.00;;;;;;5102261;28;20193;-62
2022/05/01 07:56:56;;;;;;;29.00;23.57;;;17.20;1.00;;;;;;5102515;28;20916;-63
2022/05/01 07:59:22;;;;;;;28.93;25.87;;;17.30;1.00;;;;;;5097350;28;20214;-62
2022/05/01 08:01:47;;;;;;;28.80;24.07;;;17.60;1.00;;;;;;5095356;28;20194;-63
2022/05/01 08:04:28;;;;;;;25.53;22.63;;;17.70;1.00;;;;;;5098341;28;20512;-62
2022/05/01 08:06:54;;;;;;;28.63;22.20;;;17.70;1.00;;;;;;5097568;28;20720;-61
2022/05/01 08:09:20;;;;;;;24.30;22.00;;;17.70;1.00;;;;;;5099038;28;20459;-63
2022/05/01 08:11:46;;;;;;;26.43;21.90;;;17.60;1.00;;;;;;5108320;28;20758;-62
2022/05/01 08:14:12;;;;;;;25.97;22.43;;;17.60;1.00;;;;;;5104655;28;20190;-62
2022/05/01 08:16:41;;;;;;;26.23;23.57;;;17.60;1.00;;;;;;5094181;28;20232;-63
2022/05/01 08:21:52;;;;;;;26.13;22.97;;;17.90;1.00;;;;;;5100395;28;20490;-63
2022/05/01 08:24:18;;;;;;;24.20;21.87;;;18.00;1.00;;;;;;5083338;28;20451;-63
2022/05/01 08:26:46;;;;;;;25.00;22.17;;;18.00;1.00;;;;;;5099749;28;22020;-61
2022/05/01 08:29:13;;;;;;;22.70;20.00;;;;;;;;;;5102736;28;20448;-63
2022/05/01 08:31:42;;;;;;;23.73;21.23;;;18.20;1.00;;;;;;5074502;28;20449;-62
2022/05/01 08:34:08;;;;;;;22.23;20.07;;;18.30;1.00;;;;;;5103237;28;20520;-61
2022/05/01 08:36:34;;;;;;;21.60;19.37;;;18.30;1.00;;;;;;5100883;28;20440;-62
2022/05/01 08:38:59;;;;;;;19.97;17.93;;;18.30;1.00;;;;;;5098316;28;20483;-61
2022/05/01 08:41:29;;;;;;;21.97;19.30;;;18.40;1.00;;;;;;5092632;28;20183;-61
2022/05/01 08:43:57;;;;;;;21.50;18.47;;;18.80;1.00;;;;;;5094162;28;20217;-61
2022/05/01 08:46:48;;;;;;;24.37;20.57;;;18.90;1.00;;;;;;5104179;28;20440;-61
2022/05/01 08:49:17;;;;;;;21.87;19.70;;;18.80;1.00;;;;;;5093041;28;20999;-61
2022/05/01 08:51:43;;;;;;;20.77;18.47;;;18.30;1.00;;;;;;5099597;28;20460;-61
2022/05/01 08:54:11;;;;;;;19.77;17.63;;;18.50;1.00;;;;;;5103717;28;20940;-61
2022/05/01 08:56:40;;;;;;;18.27;16.20;;;18.50;1.00;;;;;;5099980;28;20501;-61
2022/05/01 08:59:09;;;;;;;19.30;17.33;;;18.90;1.00;;;;;;5104482;28;20547;-60
2022/05/01 09:01:36;;;;;;;19.80;17.80;;;18.90;1.00;;;;;;5093116;28;20452;-60
2022/05/01 09:04:04;;;;;;;19.57;17.53;;;19.20;1.00;;;;;;5097529;28;20467;-61
2022/05/01 09:06:31;;;;;;;20.00;18.00;;;19.30;1.00;;;;;;5099344;28;20838;-63
2022/05/01 09:08:57;;;;;;;18.37;16.50;;;19.20;1.00;;;;;;5098121;28;20838;-60
2022/05/01 09:14:07;;;;;;;17.43;15.60;;;19.60;1.00;;;;;;5105240;28;20446;-62
2022/05/01 09:16:36;;;;;;;17.43;15.43;;;19.80;1.00;;;;;;5097551;28;20521;-59
2022/05/01 09:19:03;;;;;;;17.37;15.67;;;19.90;1.00;;;;;;5092671;28;20813;-62
2022/05/01 09:21:48;;;;;;;16.97;15.37;;;20.00;1.00;;;;;;5100213;28;20458;-60
2022/05/01 09:24:24;;;;;;;17.47;15.67;;;19.90;1.00;;;;;;5101297;28;20472;-61
2022/05/01 09:26:49;;;;;;;17.47;15.67;;;19.80;1.00;;;;;;5097951;28;20535;-61
2022/05/01 09:29:21;;;;;;;19.03;17.10;;;19.60;1.00;;;;;;5101184;28;21013;-59
2022/05/01 09:31:46;;;;;;;20.90;16.50;;;19.40;1.00;;;;;;5098684;28;21420;-61
2022/05/01 09:34:23;;;;;;;17.43;15.83;;;19.60;1.00;;;;;;5100700;28;20588;-60
2022/05/01 09:36:52;;;;;;;17.37;14.90;;;19.50;1.00;;;;;;5097309;28;20220;-61
2022/05/01 09:39:25;;;;;;;17.70;15.80;;;19.80;1.00;;;;;;5102880;28;20468;-61
2022/05/01 09:41:52;;;;;;;15.73;14.03;;;20.10;1.00;;;;;;5080758;28;20448;-62
2022/05/01 09:44:20;;;;;;;16.60;15.03;;;19.80;1.00;;;;;;5100262;28;20571;-61
2022/05/01 09:46:47;;;;;;;15.70;14.20;;;19.90;1.00;;;;;;5101419;28;20440;-61
2022/05/01 09:49:14;;;;;;;15.90;14.30;;;20.30;1.00;;;;;;5107318;28;20451;-60
2022/05/01 09:51:46;;;;;;;15.20;13.80;;;20.70;1.00;;;;;;5103091;28;20471;-61
2022/05/01 09:54:18;;;;;;;17.27;14.00;;;20.70;1.00;;;;;;5096113;28;20484;-60
2022/05/01 09:56:44;;;;;;;15.30;13.70;;;20.30;1.00;;;;;;5108108;28;20459;-61
2022/05/01 09:59:09;;;;;;;16.50;13.40;;;20.10;1.00;;;;;;5081970;28;20475;-61
2022/05/01 10:01:35;;;;;;;17.53;14.87;;;19.90;1.00;;;;;;5094257;28;20490;-61
2022/05/01 10:04:04;;;;;;;16.30;14.60;;;19.90;1.00;;;;;;5107475;28;20174;-61
2022/05/01 10:06:31;;;;;;;14.53;13.03;;;20.00;1.00;;;;;;5107270;28;20223;-60
2022/05/01 10:08:57;;;;;;;15.77;14.07;;;20.10;1.00;;;;;;5101376;28;20733;-59
2022/05/01 10:11:28;;;;;;;14.93;13.03;;;20.10;1.00;;;;;;5102195;28;20443;-59
2022/05/01 10:13:55;;;;;;;12.97;11.67;;;20.20;1.00;;;;;;5101364;28;20447;-60
2022/05/01 10:16:21;;;;;;;13.50;12.10;;;20.30;1.00;;;;;;5101395;28;20483;-61
2022/05/01 10:18:47;;;;;;;13.33;11.90;;;20.10;1.00;;;;;;5098366;28;20510;-61
2022/05/01 10:21:13;;;;;;;11.87;10.67;;;19.70;1.00;;;;;;5102517;28;20181;-62
2022/05/01 10:23:40;;;;;;;13.20;11.47;;;19.80;1.00;;;;;;5080594;28;20193;-60
2022/05/01 10:26:24;;;;;;;13.13;10.80;;;20.00;1.00;;;;;;5100073;28;20209;-60
2022/05/01 10:29:05;;;;;;;13.17;10.40;;;20.00;1.00;;;;;;5098735;28;20649;-60
2022/05/01 10:32:22;;;;;;;14.50;10.50;;;20.20;1.00;;;;;;5086970;28;20446;-61
2022/05/01 10:35:07;;;;;;;9.90;7.60;;;20.40;1.00;;;;;;5098242;28;20433;-60
2022/05/01 10:37:54;;;;;;;8.43;7.60;;;20.70;1.00;;;;;;5096173;28;20494;-60
2022/05/01 10:40:21;;;;;;;7.87;7.07;;;20.80;1.00;;;;;;5095007;28;20457;-59
2022/05/01 10:42:52;;;;;;;8.07;7.40;;;20.50;1.00;;;;;;5097885;28;20447;-60
2022/05/01 10:45:23;;;;;;;8.00;7.20;;;20.20;1.00;;;;;;5096944;28;20443;-61
2022/05/01 10:47:54;;;;;;;8.50;7.57;;;20.40;1.00;;;;;;5098148;28;20543;-61
2022/05/01 10:50:22;;;;;;;8.60;7.80;;;20.60;1.00;;;;;;5097610;28;20448;-58
2022/05/01 10:53:11;;;;;;;7.93;7.13;;;20.70;1.00;;;;;;5104179;28;20539;-61
2022/05/01 10:55:49;;;;;;;12.30;7.90;;;21.10;1.00;;;;;;5092909;28;21259;-60
2022/05/01 10:58:30;;;;;;;8.70;7.00;;;21.10;1.00;;;;;;5102882;28;20471;-60
2022/05/01 11:00:56;;;;;;;8.37;7.50;;;21.00;1.00;;;;;;5103673;28;20505;-61
2022/05/01 11:03:26;;;;;;;7.33;6.63;;;20.90;1.00;;;;;;5096982;28;20449;-59
2022/05/01 11:05:56;;;;;;;9.10;8.13;;;20.80;1.00;;;;;;5097325;28;20448;-60
2022/05/01 11:08:24;;;;;;;10.40;9.40;;;20.60;1.00;;;;;;5102105;28;20905;-59
2022/05/01 11:10:53;;;;;;;11.60;8.90;;;20.60;1.00;;;;;;5107623;28;20447;-60
2022/05/01 11:13:19;;;;;;;9.47;8.57;;;21.00;1.00;;;;;;5086535;28;20450;-60
2022/05/01 11:15:49;;;;;;;9.63;8.70;;;21.10;1.00;;;;;;5097740;28;20806;-60
2022/05/01 11:18:16;;;;;;;13.07;9.20;;;21.30;1.00;;;;;;5092622;28;22049;-60
2022/05/01 11:20:43;;;;;;;14.40;9.00;;;21.60;1.00;;;;;;5096057;28;20463;-62
2022/05/01 11:23:30;;;;;;;13.03;8.73;;;21.50;1.00;;;;;;5108239;28;21242;-61
2022/05/01 11:26:08;;;;;;;9.70;8.80;;;20.70;1.00;;;;;;5093212;28;20436;-60
2022/05/01 11:28:52;;;;;;;9.83;8.47;;;20.70;1.00;;;;;;5101992;28;20444;-61
2022/05/01 11:31:36;;;;;;;9.90;8.83;;;20.90;1.00;;;;;;5105006;28;20455;-60
2022/05/01 11:34:25;;;;;;;10.50;8.63;;;21.10;1.00;;;;;;5095740;28;20445;-61
2022/05/01 11:37:01;;;;;;;9.13;8.10;;;20.90;1.00;;;;;;5102109;28;20448;-60
2022/05/01 11:39:45;;;;;;;8.60;7.63;;;21.30;1.00;;;;;;5096923;28;20554;-61
2022/05/01 11:42:25;;;;;;;11.60;7.87;;;21.50;1.00;;;;;;5095517;28;20436;-62
2022/05/01 11:44:54;;;;;;;9.50;6.93;;;21.70;1.00;;;;;;5103499;28;20536;-60
2022/05/01 11:47:21;;;;;;;8.93;8.13;;;21.90;1.00;;;;;;5098956;28;20857;-61
2022/05/01 11:49:46;;;;;;;9.30;8.27;;;22.30;1.00;;;;;;5104583;28;20439;-60
2022/05/01 11:52:13;;;;;;;7.97;7.30;;;22.50;1.00;;;;;;5108695;28;20450;-60
2022/05/01 11:54:40;;;;;;;9.30;7.47;;;22.50;1.00;;;;;;5104310;28;20248;-60
2022/05/01 12:02:38;;;;;;;11.40;7.30;;;22.00;1.00;;;;;;5097398;28;20929;-59
2022/05/01 12:05:04;;;;;;;8.47;7.57;;;22.40;1.00;;;;;;5102819;28;20448;-60
2022/05/01 12:07:31;;;;;;;10.60;8.23;;;22.80;1.00;;;;;;5106168;28;20634;-60
2022/05/01 12:09:57;;;;;;;10.77;9.77;;;22.70;1.00;;;;;;5105939;28;20455;-60
2022/05/01 12:12:31;;;;;;;10.40;9.30;;;22.50;1.00;;;;;;5095366;28;20631;-59
2022/05/01 12:15:04;;;;;;;9.70;8.50;;;22.20;1.00;;;;;;5091530;28;20450;-60
2022/05/01 12:17:32;;;;;;;9.77;8.97;;;22.30;1.00;;;;;;5100483;28;20451;-61
2022/05/01 12:19:58;;;;;;;8.70;8.00;;;22.00;1.00;;;;;;5102905;28;20516;-61
2022/05/01 12:22:31;;;;;;;9.40;8.50;;;21.90;1.00;;;;;;5111233;28;20446;-60
2022/05/01 12:24:56;;;;;;;10.97;9.10;;;22.00;1.00;;;;;;5099647;28;21090;-60
2022/05/01 12:27:26;;;;;;;19.30;11.83;;;22.20;1.00;;;;;;5096343;28;20441;-60
2022/05/01 12:29:53;;;;;;;12.60;11.30;;;22.80;1.00;;;;;;5091351;28;20260;-60
2022/05/01 12:32:19;;;;;;;11.20;10.10;;;22.80;1.00;;;;;;5092098;28;20810;-60
2022/05/01 12:34:44;;;;;;;10.87;9.97;;;22.80;1.00;;;;;;5110082;28;20458;-60
2022/05/01 12:37:21;;;;;;;11.60;10.00;;;22.90;1.00;;;;;;5097924;28;20175;-60
2022/05/01 12:40:02;;;;;;;10.53;9.63;;;23.00;1.00;;;;;;5096562;28;20678;-60
2022/05/01 12:45:13;;;;;;;10.07;9.07;;;22.70;1.00;;;;;;5100393;28;20966;-61
2022/05/01 12:47:44;;;;;;;9.60;8.70;;;21.80;1.00;;;;;;5094050;28;20429;-61
2022/05/01 12:50:18;;;;;;;10.47;9.47;;;21.60;1.00;;;;;;5096327;28;20441;-60
2022/05/01 12:52:47;;;;;;;9.73;8.90;;;21.70;1.00;;;;;;5098267;28;20438;-61
2022/05/01 12:55:16;;;;;;;9.00;8.03;;;21.70;1.00;;;;;;5103577;28;20451;-59
2022/05/01 12:57:49;;;;;;;10.33;8.33;;;21.70;1.00;;;;;;5094388;28;20769;-60
2022/05/01 13:00:36;;;;;;;10.30;7.80;;;21.80;1.00;;;;;;5075563;28;20475;-61
2022/05/01 13:03:21;;;;;;;9.57;8.67;;;21.90;1.00;;;;;;5097327;28;20463;-61
2022/05/01 13:06:09;;;;;;;10.60;7.67;;;22.10;1.00;;;;;;5091345;28;20553;-60
2022/05/01 13:08:36;;;;;;;8.23;7.43;;;22.20;1.00;;;;;;5091878;28;20444;-61
2022/05/01 13:11:08;;;;;;;8.80;6.93;;;22.60;1.00;;;;;;5098673;28;20448;-60
2022/05/01 13:14:23;;;;;;;8.20;7.33;;;22.70;1.00;;;;;;5098383;28;20520;-61
2022/05/01 13:16:49;;;;;;;9.13;8.33;;;22.40;1.00;;;;;;5091188;28;20472;-60
2022/05/01 13:19:18;;;;;;;9.00;8.10;;;22.50;1.00;;;;;;5093136;28;20496;-60
2022/05/01 13:21:53;;;;;;;10.17;9.20;;;22.80;1.00;;;;;;5109912;28;20185;-61
2022/05/01 13:24:23;;;;;;;7.87;7.20;;;22.90;1.00;;;;;;5105368;28;20946;-60